Croton Hudson, New York
Current Conditions -  °F | °C
As of 2:56 PM on Monday 24 Nov 2014 (Local Time) from KHPN Reporting Station
Scattered Clouds Scattered Clouds  
Wind Chill: 61°   Ceiling: Unl
Heat Index: 61°   Visibility: 9mi
Dew Point: 58°   Wind: 10mph
Humidity: 90%   Direction: 160°SSE
Pressure: 29.57"   Gusts: NA
Location:  41.2219°N, 73.887°W
Report Text: KHPN 241956Z 16009KT 9SM SCT008 16/14 A2957 RMK AO2 SLP014 T01610144
Loading
Personal Weather Stations






























Interactive Weather Map New forecast layout! Learn more

10-Day Weather Forecast

Advertisements
Track Severe Weather on mobile